THY45 FACT-LTFM
Flight info
| Callsign | THY45 |
|---|---|
| Flight time | N/A |
| Altitude | 37000 |
| Route | KODES1A KODES UZ30 IMKIV UT916 VLS/N0490F390 UR779 MB UP312 LOSIN UM441 LOTAS/N0485F400 UM308 RUDOL/N0489F390 UM308 GWZ/N0487F400 UT124 ALRAP/N0485F410 DCT KSL/N0488F400 DCT TOMRU P751 AST W8 ALPID/N0487F410 DCT GESON/N0488F400 DCT LAGVI Q777 RASDA M855 TOMBI UM855 SISPI |
| Aircraft | A359/H-SDE2E3GHIJ3J4J5LM1ORWXY/LB1D1 |
Departure
| Time | N/A |
|---|---|
| Airport | Cape Town International Airport (FACT) |
Arrival
| Time | 2026-05-01 08:25 |
|---|---|
| Airport | İstanbul Airport (LTFM) |
| Time | Latitude | Longitude | Altitude | Speed | Heading |
|---|---|---|---|---|---|
| 2026-05-01 08:04 | 40.88822 | 29.48424 | 13247 ft | 370 kts | 301° |
| 2026-05-01 08:05 | 40.92738 | 29.44633 | 12720 ft | 348 kts | 348° |
| 2026-05-01 08:05 | 40.95101 | 29.44637 | 12490 ft | 337 kts | 10° |
| 2026-05-01 08:05 | 40.97353 | 29.45116 | 12242 ft | 326 kts | 2° |
| 2026-05-01 08:06 | 41.01658 | 29.44264 | 11853 ft | 304 kts | 346° |
| 2026-05-01 08:06 | 41.05585 | 29.42805 | 11392 ft | 288 kts | 340° |
| 2026-05-01 08:07 | 41.09023 | 29.40288 | 10701 ft | 281 kts | 327° |
| 2026-05-01 08:07 | 41.12295 | 29.37491 | 9985 ft | 277 kts | 326° |
| 2026-05-01 08:08 | 41.13858 | 29.36033 | 9821 ft | 274 kts | 318° |
| 2026-05-01 08:08 | 41.16480 | 29.32384 | 9809 ft | 274 kts | 311° |
| 2026-05-01 08:09 | 41.18343 | 29.28074 | 9809 ft | 272 kts | 275° |
| 2026-05-01 08:09 | 41.18120 | 29.25611 | 9808 ft | 270 kts | 248° |
| 2026-05-01 08:09 | 41.17072 | 29.23572 | 9809 ft | 270 kts | 221° |
| 2026-05-01 08:10 | 41.13778 | 29.21276 | 9811 ft | 271 kts | 211° |
| 2026-05-01 08:10 | 41.10607 | 29.18528 | 9806 ft | 272 kts | 214° |
| 2026-05-01 08:11 | 41.07512 | 29.15728 | 9112 ft | 269 kts | 214° |
| 2026-05-01 08:11 | 41.04435 | 29.12949 | 8807 ft | 267 kts | 214° |
| 2026-05-01 08:12 | 41.01385 | 29.10194 | 8810 ft | 267 kts | 214° |
| 2026-05-01 08:12 | 40.99862 | 29.08814 | 8810 ft | 267 kts | 214° |
| 2026-05-01 08:12 | 40.96799 | 29.06048 | 8810 ft | 266 kts | 214° |
| 2026-05-01 08:13 | 40.95295 | 29.04693 | 8803 ft | 257 kts | 214° |
| 2026-05-01 08:13 | 40.93821 | 29.03365 | 8755 ft | 257 kts | 214° |
| 2026-05-01 08:13 | 40.91124 | 29.00268 | 8018 ft | 256 kts | 241° |
| 2026-05-01 08:14 | 40.90496 | 28.98094 | 7715 ft | 252 kts | 254° |
| 2026-05-01 08:14 | 40.90038 | 28.95868 | 7373 ft | 251 kts | 255° |
| 2026-05-01 08:14 | 40.89590 | 28.93646 | 7032 ft | 249 kts | 255° |
| 2026-05-01 08:14 | 40.89138 | 28.91438 | 6832 ft | 246 kts | 254° |
| 2026-05-01 08:15 | 40.88684 | 28.89248 | 6808 ft | 247 kts | 254° |
| 2026-05-01 08:15 | 40.87773 | 28.84886 | 6809 ft | 247 kts | 255° |
| 2026-05-01 08:15 | 40.87578 | 28.82642 | 6805 ft | 248 kts | 276° |
| 2026-05-01 08:16 | 40.88187 | 28.80541 | 6660 ft | 246 kts | 307° |
| 2026-05-01 08:16 | 40.89491 | 28.79157 | 6276 ft | 246 kts | 332° |
| 2026-05-01 08:16 | 40.90265 | 28.78643 | 6087 ft | 247 kts | 334° |
| 2026-05-01 08:16 | 40.91176 | 28.78082 | 5908 ft | 245 kts | 335° |
| 2026-05-01 08:17 | 40.92587 | 28.77221 | 5808 ft | 239 kts | 334° |
| 2026-05-01 08:17 | 40.94020 | 28.76245 | 5796 ft | 222 kts | 329° |
| 2026-05-01 08:17 | 40.95285 | 28.75234 | 5809 ft | 204 kts | 327° |
| 2026-05-01 08:17 | 40.96478 | 28.74274 | 5811 ft | 199 kts | 328° |
| 2026-05-01 08:18 | 40.97745 | 28.73532 | 5812 ft | 200 kts | 343° |
| 2026-05-01 08:18 | 41.00471 | 28.73237 | 5363 ft | 196 kts | 359° |
| 2026-05-01 08:19 | 41.03084 | 28.73221 | 5064 ft | 178 kts | 360° |
| 2026-05-01 08:19 | 41.04280 | 28.73263 | 4904 ft | 170 kts | 0° |
| 2026-05-01 08:19 | 41.05423 | 28.73252 | 4801 ft | 158 kts | 358° |
| 2026-05-01 08:19 | 41.06501 | 28.73224 | 4799 ft | 153 kts | 358° |
| 2026-05-01 08:20 | 41.07580 | 28.73198 | 4811 ft | 156 kts | 358° |
| 2026-05-01 08:20 | 41.08669 | 28.73175 | 4811 ft | 157 kts | 358° |
| 2026-05-01 08:20 | 41.09761 | 28.73154 | 4810 ft | 157 kts | 358° |
| 2026-05-01 08:20 | 41.10804 | 28.73133 | 4804 ft | 156 kts | 358° |
| 2026-05-01 08:21 | 41.11915 | 28.73108 | 4505 ft | 154 kts | 358° |
| 2026-05-01 08:21 | 41.12990 | 28.73084 | 4141 ft | 157 kts | 358° |
| 2026-05-01 08:21 | 41.14086 | 28.73058 | 3781 ft | 158 kts | 358° |
| 2026-05-01 08:21 | 41.15185 | 28.73032 | 3424 ft | 158 kts | 358° |
| 2026-05-01 08:22 | 41.16288 | 28.73006 | 3063 ft | 158 kts | 358° |
| 2026-05-01 08:22 | 41.17389 | 28.72978 | 2733 ft | 157 kts | 358° |
| 2026-05-01 08:22 | 41.18483 | 28.72955 | 2390 ft | 158 kts | 358° |
| 2026-05-01 08:22 | 41.19566 | 28.72931 | 2076 ft | 157 kts | 358° |
| 2026-05-01 08:23 | 41.20658 | 28.72906 | 1745 ft | 156 kts | 358° |
| 2026-05-01 08:23 | 41.21740 | 28.72885 | 1443 ft | 155 kts | 357° |
| 2026-05-01 08:23 | 41.22804 | 28.72857 | 1176 ft | 151 kts | 359° |
| 2026-05-01 08:23 | 41.23839 | 28.72838 | 891 ft | 147 kts | 358° |
| 2026-05-01 08:24 | 41.24858 | 28.72808 | 650 ft | 146 kts | 357° |
| 2026-05-01 08:24 | 41.25872 | 28.72777 | 470 ft | 146 kts | 358° |
| 2026-05-01 08:24 | 41.26887 | 28.72751 | 344 ft | 143 kts | 358° |
| 2026-05-01 08:24 | 41.27780 | 28.72738 | 340 ft | 112 kts | 359° |
| 2026-05-01 08:25 | 41.28434 | 28.72727 | 340 ft | 55 kts | 2° |
| 2026-05-01 08:25 | 41.28600 | 28.72778 | 340 ft | 19 kts | 23° |
| 2026-05-01 08:25 | 41.28707 | 28.72858 | 340 ft | 16 kts | 44° |
| 2026-05-01 08:25 | 41.28695 | 28.72938 | 340 ft | 6 kts | 165° |
| 2026-05-01 08:26 | 41.28646 | 28.72946 | 340 ft | 8 kts | 175° |
| 2026-05-01 08:26 | 41.28586 | 28.72947 | 340 ft | 10 kts | 179° |
| 2026-05-01 08:26 | 41.28513 | 28.72951 | 340 ft | 11 kts | 178° |
| 2026-05-01 08:26 | 41.28427 | 28.72953 | 340 ft | 13 kts | 179° |
| 2026-05-01 08:27 | 41.28329 | 28.72955 | 340 ft | 15 kts | 179° |
| 2026-05-01 08:27 | 41.28217 | 28.72957 | 340 ft | 17 kts | 179° |
| 2026-05-01 08:27 | 41.28094 | 28.72961 | 340 ft | 18 kts | 179° |
| 2026-05-01 08:27 | 41.27966 | 28.72964 | 340 ft | 19 kts | 179° |
| 2026-05-01 08:28 | 41.27836 | 28.72966 | 340 ft | 18 kts | 179° |
| 2026-05-01 08:28 | 41.27706 | 28.72969 | 340 ft | 19 kts | 179° |
| 2026-05-01 08:28 | 41.27570 | 28.72973 | 340 ft | 20 kts | 179° |
| 2026-05-01 08:28 | 41.27427 | 28.72976 | 340 ft | 22 kts | 179° |
| 2026-05-01 08:29 | 41.27278 | 28.72980 | 340 ft | 21 kts | 179° |
| 2026-05-01 08:29 | 41.27179 | 28.72982 | 340 ft | 14 kts | 179° |
| 2026-05-01 08:29 | 41.27078 | 28.72984 | 340 ft | 15 kts | 179° |
| 2026-05-01 08:29 | 41.26971 | 28.73008 | 340 ft | 16 kts | 139° |
| 2026-05-01 08:30 | 41.26954 | 28.73148 | 340 ft | 16 kts | 89° |
| 2026-05-01 08:30 | 41.26956 | 28.73304 | 340 ft | 16 kts | 89° |
| 2026-05-01 08:30 | 41.26958 | 28.73459 | 340 ft | 18 kts | 89° |
| 2026-05-01 08:30 | 41.26960 | 28.73615 | 340 ft | 16 kts | 89° |
| 2026-05-01 08:31 | 41.26963 | 28.73774 | 340 ft | 18 kts | 89° |
| 2026-05-01 08:31 | 41.26964 | 28.73901 | 340 ft | 0 kts | 89° |
| 2026-05-01 08:31 | 41.26964 | 28.73938 | 340 ft | 6 kts | 89° |
| 2026-05-01 08:32 | 41.26949 | 28.73998 | 340 ft | 8 kts | 129° |
| 2026-05-01 08:32 | 41.26899 | 28.74016 | 340 ft | 8 kts | 179° |
| 2026-05-01 08:32 | 41.26850 | 28.74017 | 340 ft | 6 kts | 178° |
| 2026-05-01 08:32 | 41.26800 | 28.74018 | 340 ft | 8 kts | 179° |
| 2026-05-01 08:33 | 41.26747 | 28.74046 | 340 ft | 8 kts | 118° |
| 2026-05-01 08:33 | 41.26742 | 28.74116 | 340 ft | 0 kts | 91° |